sensor_id;sensor_type;location;lat;lon;timestamp;P1;durP1;ratioP1;P2;durP2;ratioP2
4078;SDS011;2054;47.858;11.156;2023-10-31T03:45:59;0.40;;;0.40;;
4078;SDS011;2054;47.858;11.156;2023-10-31T03:48:26;0.40;;;0.40;;
4078;SDS011;2054;47.858;11.156;2023-10-31T03:50:53;1.10;;;0.40;;
4078;SDS011;2054;47.858;11.156;2023-10-31T03:53:22;0.55;;;0.40;;
4078;SDS011;2054;47.858;11.156;2023-10-31T03:55:49;1.38;;;0.60;;
4078;SDS011;2054;47.858;11.156;2023-10-31T03:58:16;0.77;;;0.50;;
4078;SDS011;2054;47.858;11.156;2023-10-31T04:00:43;0.43;;;0.40;;
4078;SDS011;2054;47.858;11.156;2023-10-31T04:03:12;1.05;;;0.60;;
4078;SDS011;2054;47.858;11.156;2023-10-31T04:05:39;0.95;;;0.70;;
4078;SDS011;2054;47.858;11.156;2023-10-31T04:08:06;0.60;;;0.60;;
4078;SDS011;2054;47.858;11.156;2023-10-31T04:10:34;0.82;;;0.50;;
4078;SDS011;2054;47.858;11.156;2023-10-31T04:13:01;0.50;;;0.50;;
4078;SDS011;2054;47.858;11.156;2023-10-31T04:15:28;3.00;;;0.57;;
4078;SDS011;2054;47.858;11.156;2023-10-31T04:17:55;1.08;;;0.55;;
4078;SDS011;2054;47.858;11.156;2023-10-31T04:20:24;0.60;;;0.60;;
4078;SDS011;2054;47.858;11.156;2023-10-31T04:22:52;0.55;;;0.55;;
4078;SDS011;2054;47.858;11.156;2023-10-31T04:25:19;2.20;;;0.70;;
4078;SDS011;2054;47.858;11.156;2023-10-31T04:27:46;1.30;;;0.60;;
4078;SDS011;2054;47.858;11.156;2023-10-31T04:30:14;1.92;;;0.70;;
4078;SDS011;2054;47.858;11.156;2023-10-31T04:32:41;1.48;;;0.50;;
4078;SDS011;2054;47.858;11.156;2023-10-31T04:35:08;0.60;;;0.60;;
4078;SDS011;2054;47.858;11.156;2023-10-31T04:37:37;2.63;;;2.42;;
4078;SDS011;2054;47.858;11.156;2023-10-31T04:40:04;1.67;;;0.80;;
4078;SDS011;2054;47.858;11.156;2023-10-31T04:42:32;1.38;;;0.50;;
4078;SDS011;2054;47.858;11.156;2023-10-31T04:44:59;3.03;;;0.60;;
4078;SDS011;2054;47.858;11.156;2023-10-31T04:47:27;0.43;;;0.43;;
4078;SDS011;2054;47.858;11.156;2023-10-31T04:49:54;0.85;;;0.80;;
4078;SDS011;2054;47.858;11.156;2023-10-31T04:52:21;0.60;;;0.60;;
4078;SDS011;2054;47.858;11.156;2023-10-31T04:54:52;0.75;;;0.73;;
4078;SDS011;2054;47.858;11.156;2023-10-31T04:57:19;0.73;;;0.50;;
4078;SDS011;2054;47.858;11.156;2023-10-31T04:59:47;1.85;;;0.63;;
4078;SDS011;2054;47.858;11.156;2023-10-31T05:02:14;1.10;;;0.60;;
4078;SDS011;2054;47.858;11.156;2023-10-31T05:04:41;0.60;;;0.52;;
4078;SDS011;2054;47.858;11.156;2023-10-31T05:07:09;0.95;;;0.52;;
4078;SDS011;2054;47.858;11.156;2023-10-31T05:09:38;1.30;;;0.50;;
4078;SDS011;2054;47.858;11.156;2023-10-31T05:12:07;0.93;;;0.75;;
4078;SDS011;2054;47.858;11.156;2023-10-31T05:14:34;1.30;;;1.15;;
4078;SDS011;2054;47.858;11.156;2023-10-31T05:17:02;1.55;;;1.05;;
4078;SDS011;2054;47.858;11.156;2023-10-31T05:19:29;2.10;;;1.25;;
4078;SDS011;2054;47.858;11.156;2023-10-31T05:21:56;2.38;;;1.00;;
4078;SDS011;2054;47.858;11.156;2023-10-31T05:24:24;0.80;;;0.60;;
4078;SDS011;2054;47.858;11.156;2023-10-31T05:26:51;0.60;;;0.60;;
4078;SDS011;2054;47.858;11.156;2023-10-31T05:29:20;0.85;;;0.82;;
4078;SDS011;2054;47.858;11.156;2023-10-31T05:31:47;0.88;;;0.70;;
4078;SDS011;2054;47.858;11.156;2023-10-31T05:34:15;1.02;;;0.75;;
4078;SDS011;2054;47.858;11.156;2023-10-31T05:36:42;1.48;;;0.50;;
4078;SDS011;2054;47.858;11.156;2023-10-31T05:39:09;0.82;;;0.50;;
4078;SDS011;2054;47.858;11.156;2023-10-31T05:41:37;1.88;;;1.05;;
4078;SDS011;2054;47.858;11.156;2023-10-31T05:44:04;3.97;;;0.80;;
4078;SDS011;2054;47.858;11.156;2023-10-31T05:46:33;0.50;;;0.50;;
4078;SDS011;2054;47.858;11.156;2023-10-31T05:49:04;0.60;;;0.60;;
4078;SDS011;2054;47.858;11.156;2023-10-31T05:51:33;1.05;;;0.90;;
4078;SDS011;2054;47.858;11.156;2023-10-31T05:54:01;0.80;;;0.60;;
4078;SDS011;2054;47.858;11.156;2023-10-31T05:56:28;2.17;;;0.70;;
4078;SDS011;2054;47.858;11.156;2023-10-31T05:58:55;1.27;;;0.82;;
4078;SDS011;2054;47.858;11.156;2023-10-31T06:01:22;0.60;;;0.60;;
4078;SDS011;2054;47.858;11.156;2023-10-31T06:03:51;0.70;;;0.70;;
4078;SDS011;2054;47.858;11.156;2023-10-31T06:06:22;0.55;;;0.55;;
4078;SDS011;2054;47.858;11.156;2023-10-31T06:08:49;1.83;;;0.65;;
4078;SDS011;2054;47.858;11.156;2023-10-31T06:11:17;1.13;;;0.60;;
4078;SDS011;2054;47.858;11.156;2023-10-31T06:13:44;2.10;;;0.75;;
4078;SDS011;2054;47.858;11.156;2023-10-31T06:16:13;1.45;;;0.60;;
4078;SDS011;2054;47.858;11.156;2023-10-31T06:18:40;2.58;;;1.55;;
4078;SDS011;2054;47.858;11.156;2023-10-31T06:21:08;2.35;;;0.70;;
4078;SDS011;2054;47.858;11.156;2023-10-31T06:23:36;0.50;;;0.50;;
4078;SDS011;2054;47.858;11.156;2023-10-31T06:26:03;1.33;;;0.70;;
4078;SDS011;2054;47.858;11.156;2023-10-31T06:28:30;0.90;;;0.75;;
4078;SDS011;2054;47.858;11.156;2023-10-31T06:31:00;0.80;;;0.60;;
4078;SDS011;2054;47.858;11.156;2023-10-31T06:33:27;0.70;;;0.70;;
4078;SDS011;2054;47.858;11.156;2023-10-31T06:35:55;1.17;;;0.65;;
4078;SDS011;2054;47.858;11.156;2023-10-31T06:38:23;2.00;;;0.80;;
4078;SDS011;2054;47.858;11.156;2023-10-31T06:40:51;1.00;;;0.70;;
4078;SDS011;2054;47.858;11.156;2023-10-31T06:43:18;2.25;;;0.70;;
4078;SDS011;2054;47.858;11.156;2023-10-31T06:45:45;1.58;;;0.73;;
4078;SDS011;2054;47.858;11.156;2023-10-31T06:48:12;1.67;;;0.80;;
4078;SDS011;2054;47.858;11.156;2023-10-31T06:50:39;0.75;;;0.60;;
4078;SDS011;2054;47.858;11.156;2023-10-31T06:53:06;1.20;;;0.77;;
4078;SDS011;2054;47.858;11.156;2023-10-31T06:55:35;1.90;;;0.70;;
4078;SDS011;2054;47.858;11.156;2023-10-31T06:58:02;2.35;;;0.60;;
4078;SDS011;2054;47.858;11.156;2023-10-31T07:00:30;1.13;;;0.52;;
4078;SDS011;2054;47.858;11.156;2023-10-31T07:02:57;4.80;;;0.70;;
4078;SDS011;2054;47.858;11.156;2023-10-31T07:05:29;2.05;;;0.60;;
4078;SDS011;2054;47.858;11.156;2023-10-31T07:07:57;0.60;;;0.60;;
4078;SDS011;2054;47.858;11.156;2023-10-31T07:10:24;0.60;;;0.55;;
4078;SDS011;2054;47.858;11.156;2023-10-31T07:12:53;0.55;;;0.55;;
4078;SDS011;2054;47.858;11.156;2023-10-31T07:15:20;0.60;;;0.60;;
4078;SDS011;2054;47.858;11.156;2023-10-31T07:17:47;2.80;;;0.80;;
4078;SDS011;2054;47.858;11.156;2023-10-31T07:20:14;0.57;;;0.57;;
4078;SDS011;2054;47.858;11.156;2023-10-31T07:22:42;1.30;;;0.70;;
4078;SDS011;2054;47.858;11.156;2023-10-31T07:25:09;0.85;;;0.70;;
4078;SDS011;2054;47.858;11.156;2023-10-31T07:27:36;0.85;;;0.60;;
4078;SDS011;2054;47.858;11.156;2023-10-31T07:30:06;1.05;;;0.65;;
4078;SDS011;2054;47.858;11.156;2023-10-31T07:32:33;1.67;;;0.60;;
4078;SDS011;2054;47.858;11.156;2023-10-31T07:35:00;1.33;;;0.70;;
4078;SDS011;2054;47.858;11.156;2023-10-31T07:37:27;2.00;;;1.10;;
4078;SDS011;2054;47.858;11.156;2023-10-31T07:39:55;0.93;;;0.50;;
4078;SDS011;2054;47.858;11.156;2023-10-31T07:42:22;0.88;;;0.60;;
4078;SDS011;2054;47.858;11.156;2023-10-31T07:44:49;1.58;;;0.80;;
4078;SDS011;2054;47.858;11.156;2023-10-31T07:47:18;1.67;;;0.60;;
4078;SDS011;2054;47.858;11.156;2023-10-31T07:49:45;1.30;;;0.80;;
4078;SDS011;2054;47.858;11.156;2023-10-31T07:52:13;1.45;;;0.60;;
4078;SDS011;2054;47.858;11.156;2023-10-31T07:54:40;1.45;;;0.57;;
4078;SDS011;2054;47.858;11.156;2023-10-31T07:57:07;2.08;;;0.52;;
4078;SDS011;2054;47.858;11.156;2023-10-31T07:59:35;2.35;;;0.70;;
4078;SDS011;2054;47.858;11.156;2023-10-31T08:02:02;1.75;;;0.80;;
4078;SDS011;2054;47.858;11.156;2023-10-31T08:04:31;2.47;;;1.00;;
4078;SDS011;2054;47.858;11.156;2023-10-31T08:06:58;2.45;;;0.80;;
4078;SDS011;2054;47.858;11.156;2023-10-31T08:09:25;2.63;;;0.55;;
4078;SDS011;2054;47.858;11.156;2023-10-31T08:11:52;2.45;;;0.80;;
4078;SDS011;2054;47.858;11.156;2023-10-31T08:14:20;2.28;;;0.88;;
4078;SDS011;2054;47.858;11.156;2023-10-31T08:16:48;2.50;;;0.95;;
4078;SDS011;2054;47.858;11.156;2023-10-31T08:19:15;2.28;;;0.70;;
4078;SDS011;2054;47.858;11.156;2023-10-31T08:21:44;1.17;;;0.60;;
4078;SDS011;2054;47.858;11.156;2023-10-31T08:24:11;1.60;;;1.13;;
4078;SDS011;2054;47.858;11.156;2023-10-31T08:26:39;2.90;;;0.85;;
4078;SDS011;2054;47.858;11.156;2023-10-31T08:29:06;4.70;;;0.77;;
4078;SDS011;2054;47.858;11.156;2023-10-31T08:31:33;2.88;;;0.90;;
4078;SDS011;2054;47.858;11.156;2023-10-31T08:34:00;6.18;;;0.73;;
4078;SDS011;2054;47.858;11.156;2023-10-31T08:36:29;2.80;;;1.17;;
4078;SDS011;2054;47.858;11.156;2023-10-31T08:38:57;2.58;;;1.17;;
4078;SDS011;2054;47.858;11.156;2023-10-31T08:41:24;1.85;;;1.02;;
4078;SDS011;2054;47.858;11.156;2023-10-31T08:43:52;2.80;;;0.98;;
4078;SDS011;2054;47.858;11.156;2023-10-31T08:46:19;2.15;;;0.88;;
4078;SDS011;2054;47.858;11.156;2023-10-31T08:48:46;1.42;;;0.68;;
4078;SDS011;2054;47.858;11.156;2023-10-31T08:51:14;1.42;;;0.80;;
4078;SDS011;2054;47.858;11.156;2023-10-31T08:53:41;2.97;;;0.90;;
4078;SDS011;2054;47.858;11.156;2023-10-31T08:56:10;2.20;;;0.98;;
4078;SDS011;2054;47.858;11.156;2023-10-31T08:58:37;1.45;;;0.90;;
4078;SDS011;2054;47.858;11.156;2023-10-31T09:01:05;2.10;;;0.80;;
4078;SDS011;2054;47.858;11.156;2023-10-31T09:03:33;0.77;;;0.55;;
4078;SDS011;2054;47.858;11.156;2023-10-31T09:06:01;2.85;;;1.08;;
4078;SDS011;2054;47.858;11.156;2023-10-31T09:08:28;3.83;;;1.00;;
4078;SDS011;2054;47.858;11.156;2023-10-31T09:10:55;1.95;;;0.93;;
4078;SDS011;2054;47.858;11.156;2023-10-31T09:13:24;2.33;;;0.70;;
4078;SDS011;2054;47.858;11.156;2023-10-31T09:15:51;1.00;;;0.70;;
4078;SDS011;2054;47.858;11.156;2023-10-31T09:18:18;2.50;;;0.90;;
4078;SDS011;2054;47.858;11.156;2023-10-31T09:20:46;1.02;;;0.70;;
4078;SDS011;2054;47.858;11.156;2023-10-31T09:23:13;1.27;;;0.73;;
4078;SDS011;2054;47.858;11.156;2023-10-31T09:25:40;3.25;;;0.80;;
4078;SDS011;2054;47.858;11.156;2023-10-31T09:28:07;1.45;;;0.80;;
4078;SDS011;2054;47.858;11.156;2023-10-31T09:30:36;2.72;;;1.00;;
4078;SDS011;2054;47.858;11.156;2023-10-31T09:33:03;3.75;;;1.20;;
4078;SDS011;2054;47.858;11.156;2023-10-31T09:35:30;2.47;;;0.80;;
4078;SDS011;2054;47.858;11.156;2023-10-31T09:37:58;1.88;;;0.95;;
4078;SDS011;2054;47.858;11.156;2023-10-31T09:40:25;1.95;;;0.80;;
4078;SDS011;2054;47.858;11.156;2023-10-31T09:42:52;2.05;;;0.80;;
4078;SDS011;2054;47.858;11.156;2023-10-31T09:45:19;1.35;;;0.70;;
4078;SDS011;2054;47.858;11.156;2023-10-31T09:47:48;2.75;;;1.00;;
4078;SDS011;2054;47.858;11.156;2023-10-31T09:50:15;2.40;;;0.70;;
4078;SDS011;2054;47.858;11.156;2023-10-31T09:52:42;2.67;;;0.80;;
4078;SDS011;2054;47.858;11.156;2023-10-31T09:55:11;4.32;;;0.80;;
4078;SDS011;2054;47.858;11.156;2023-10-31T09:57:38;3.33;;;1.00;;
4078;SDS011;2054;47.858;11.156;2023-10-31T10:00:06;2.08;;;0.90;;
4078;SDS011;2054;47.858;11.156;2023-10-31T10:02:33;3.88;;;0.90;;
4078;SDS011;2054;47.858;11.156;2023-10-31T10:05:02;2.35;;;1.05;;
4078;SDS011;2054;47.858;11.156;2023-10-31T10:07:29;2.83;;;0.70;;
4078;SDS011;2054;47.858;11.156;2023-10-31T10:09:56;3.15;;;0.85;;
4078;SDS011;2054;47.858;11.156;2023-10-31T10:12:25;1.45;;;0.80;;
4078;SDS011;2054;47.858;11.156;2023-10-31T10:14:53;2.33;;;1.10;;
4078;SDS011;2054;47.858;11.156;2023-10-31T10:17:21;1.38;;;0.77;;
4078;SDS011;2054;47.858;11.156;2023-10-31T10:19:51;2.20;;;0.77;;
4078;SDS011;2054;47.858;11.156;2023-10-31T10:22:32;2.60;;;1.00;;
4078;SDS011;2054;47.858;11.156;2023-10-31T10:24:59;0.70;;;0.60;;
4078;SDS011;2054;47.858;11.156;2023-10-31T10:27:27;6.03;;;1.27;;
4078;SDS011;2054;47.858;11.156;2023-10-31T10:29:54;1.90;;;0.85;;
4078;SDS011;2054;47.858;11.156;2023-10-31T10:32:21;3.90;;;0.98;;
4078;SDS011;2054;47.858;11.156;2023-10-31T10:34:48;1.52;;;0.70;;
4078;SDS011;2054;47.858;11.156;2023-10-31T10:37:15;2.78;;;1.00;;
4078;SDS011;2054;47.858;11.156;2023-10-31T10:39:46;3.00;;;0.98;;
4078;SDS011;2054;47.858;11.156;2023-10-31T10:42:14;4.93;;;0.90;;
4078;SDS011;2054;47.858;11.156;2023-10-31T10:44:45;1.08;;;0.63;;
4078;SDS011;2054;47.858;11.156;2023-10-31T10:47:12;0.65;;;0.60;;
4078;SDS011;2054;47.858;11.156;2023-10-31T10:49:41;2.15;;;0.60;;
4078;SDS011;2054;47.858;11.156;2023-10-31T10:52:13;0.85;;;0.80;;
4078;SDS011;2054;47.858;11.156;2023-10-31T10:54:42;1.63;;;0.70;;
4078;SDS011;2054;47.858;11.156;2023-10-31T10:57:15;2.17;;;0.95;;
4078;SDS011;2054;47.858;11.156;2023-10-31T10:59:48;1.55;;;0.60;;
4078;SDS011;2054;47.858;11.156;2023-10-31T11:02:17;2.35;;;0.68;;
4078;SDS011;2054;47.858;11.156;2023-10-31T11:04:45;2.47;;;0.60;;
4078;SDS011;2054;47.858;11.156;2023-10-31T11:07:12;0.88;;;0.50;;
4078;SDS011;2054;47.858;11.156;2023-10-31T11:09:39;0.82;;;0.60;;
4078;SDS011;2054;47.858;11.156;2023-10-31T11:12:08;2.85;;;0.70;;
4078;SDS011;2054;47.858;11.156;2023-10-31T11:14:38;1.38;;;0.50;;
4078;SDS011;2054;47.858;11.156;2023-10-31T11:17:09;1.75;;;0.60;;
4078;SDS011;2054;47.858;11.156;2023-10-31T11:19:38;0.70;;;0.52;;
4078;SDS011;2054;47.858;11.156;2023-10-31T11:22:05;0.52;;;0.50;;
4078;SDS011;2054;47.858;11.156;2023-10-31T11:24:33;0.63;;;0.50;;
4078;SDS011;2054;47.858;11.156;2023-10-31T11:27:01;0.75;;;0.40;;
4078;SDS011;2054;47.858;11.156;2023-10-31T11:29:30;0.50;;;0.50;;
4078;SDS011;2054;47.858;11.156;2023-10-31T11:31:58;2.25;;;0.60;;
4078;SDS011;2054;47.858;11.156;2023-10-31T11:34:26;0.55;;;0.50;;
4078;SDS011;2054;47.858;11.156;2023-10-31T11:36:53;1.33;;;0.50;;
4078;SDS011;2054;47.858;11.156;2023-10-31T11:39:41;0.57;;;0.50;;
4078;SDS011;2054;47.858;11.156;2023-10-31T11:42:16;1.27;;;0.50;;
4078;SDS011;2054;47.858;11.156;2023-10-31T11:44:54;0.50;;;0.50;;
4078;SDS011;2054;47.858;11.156;2023-10-31T11:47:23;3.45;;;0.60;;
4078;SDS011;2054;47.858;11.156;2023-10-31T11:49:50;0.98;;;0.57;;
4078;SDS011;2054;47.858;11.156;2023-10-31T11:52:18;1.10;;;0.50;;
4078;SDS011;2054;47.858;11.156;2023-10-31T11:54:45;0.63;;;0.60;;
4078;SDS011;2054;47.858;11.156;2023-10-31T11:57:25;0.93;;;0.50;;
4078;SDS011;2054;47.858;11.156;2023-10-31T11:59:53;0.88;;;0.57;;
4078;SDS011;2054;47.858;11.156;2023-10-31T12:02:20;1.38;;;0.60;;
4078;SDS011;2054;47.858;11.156;2023-10-31T12:04:49;0.90;;;0.77;;
4078;SDS011;2054;47.858;11.156;2023-10-31T12:07:18;1.02;;;0.50;;
4078;SDS011;2054;47.858;11.156;2023-10-31T12:09:45;2.25;;;0.50;;
4078;SDS011;2054;47.858;11.156;2023-10-31T12:12:13;0.43;;;0.43;;
4078;SDS011;2054;47.858;11.156;2023-10-31T12:14:40;1.45;;;0.50;;
4078;SDS011;2054;47.858;11.156;2023-10-31T12:17:07;0.80;;;0.60;;
4078;SDS011;2054;47.858;11.156;2023-10-31T12:19:35;0.75;;;0.60;;
4078;SDS011;2054;47.858;11.156;2023-10-31T12:22:11;0.60;;;0.60;;
4078;SDS011;2054;47.858;11.156;2023-10-31T12:24:39;1.08;;;0.57;;
4078;SDS011;2054;47.858;11.156;2023-10-31T12:27:06;0.52;;;0.50;;
4078;SDS011;2054;47.858;11.156;2023-10-31T12:29:33;0.52;;;0.52;;
4078;SDS011;2054;47.858;11.156;2023-10-31T12:32:00;3.15;;;0.70;;
4078;SDS011;2054;47.858;11.156;2023-10-31T12:34:28;0.50;;;0.50;;
4078;SDS011;2054;47.858;11.156;2023-10-31T12:36:55;0.40;;;0.40;;
4078;SDS011;2054;47.858;11.156;2023-10-31T12:39:26;0.93;;;0.50;;
4078;SDS011;2054;47.858;11.156;2023-10-31T12:41:53;2.30;;;0.70;;
4078;SDS011;2054;47.858;11.156;2023-10-31T12:44:22;1.15;;;0.70;;
4078;SDS011;2054;47.858;11.156;2023-10-31T12:46:50;1.67;;;0.63;;
4078;SDS011;2054;47.858;11.156;2023-10-31T12:49:18;0.70;;;0.70;;
4078;SDS011;2054;47.858;11.156;2023-10-31T12:51:55;1.33;;;0.60;;
4078;SDS011;2054;47.858;11.156;2023-10-31T12:54:29;0.55;;;0.55;;
4078;SDS011;2054;47.858;11.156;2023-10-31T12:56:58;0.60;;;0.60;;
4078;SDS011;2054;47.858;11.156;2023-10-31T12:59:26;0.80;;;0.80;;
4078;SDS011;2054;47.858;11.156;2023-10-31T13:01:53;1.05;;;0.60;;
4078;SDS011;2054;47.858;11.156;2023-10-31T13:04:24;1.15;;;0.60;;
4078;SDS011;2054;47.858;11.156;2023-10-31T13:06:58;1.50;;;0.60;;
4078;SDS011;2054;47.858;11.156;2023-10-31T13:09:31;1.67;;;0.70;;
4078;SDS011;2054;47.858;11.156;2023-10-31T13:12:00;1.00;;;0.60;;
4078;SDS011;2054;47.858;11.156;2023-10-31T13:14:27;1.05;;;0.50;;
4078;SDS011;2054;47.858;11.156;2023-10-31T13:16:55;0.70;;;0.60;;
4078;SDS011;2054;47.858;11.156;2023-10-31T13:19:22;0.50;;;0.50;;
4078;SDS011;2054;47.858;11.156;2023-10-31T13:21:49;1.15;;;0.52;;
4078;SDS011;2054;47.858;11.156;2023-10-31T13:24:17;0.50;;;0.50;;
4078;SDS011;2054;47.858;11.156;2023-10-31T13:26:46;1.35;;;0.60;;
4078;SDS011;2054;47.858;11.156;2023-10-31T13:29:16;0.60;;;0.52;;
4078;SDS011;2054;47.858;11.156;2023-10-31T13:31:44;3.78;;;0.50;;
4078;SDS011;2054;47.858;11.156;2023-10-31T13:34:11;0.50;;;0.50;;
4078;SDS011;2054;47.858;11.156;2023-10-31T13:36:39;0.55;;;0.50;;
4078;SDS011;2054;47.858;11.156;2023-10-31T13:39:07;1.33;;;0.70;;
4078;SDS011;2054;47.858;11.156;2023-10-31T13:41:34;1.48;;;0.50;;
4078;SDS011;2054;47.858;11.156;2023-10-31T13:44:04;1.35;;;0.70;;
4078;SDS011;2054;47.858;11.156;2023-10-31T13:46:31;0.70;;;0.70;;
4078;SDS011;2054;47.858;11.156;2023-10-31T13:48:59;2.17;;;0.70;;
4078;SDS011;2054;47.858;11.156;2023-10-31T13:51:26;1.15;;;0.73;;
4078;SDS011;2054;47.858;11.156;2023-10-31T13:53:53;1.63;;;0.98;;
4078;SDS011;2054;47.858;11.156;2023-10-31T13:56:21;3.20;;;0.88;;
4078;SDS011;2054;47.858;11.156;2023-10-31T13:58:49;1.75;;;0.60;;
4078;SDS011;2054;47.858;11.156;2023-10-31T14:01:19;2.15;;;0.90;;
4078;SDS011;2054;47.858;11.156;2023-10-31T14:03:49;2.30;;;0.93;;
4078;SDS011;2054;47.858;11.156;2023-10-31T14:06:17;0.60;;;0.60;;
4078;SDS011;2054;47.858;11.156;2023-10-31T14:08:44;1.30;;;0.70;;
4078;SDS011;2054;47.858;11.156;2023-10-31T14:11:11;1.27;;;0.70;;
4078;SDS011;2054;47.858;11.156;2023-10-31T14:13:38;2.90;;;0.80;;
4078;SDS011;2054;47.858;11.156;2023-10-31T14:16:06;2.90;;;1.17;;
4078;SDS011;2054;47.858;11.156;2023-10-31T14:18:35;0.70;;;0.70;;
4078;SDS011;2054;47.858;11.156;2023-10-31T14:21:02;1.98;;;0.70;;
4078;SDS011;2054;47.858;11.156;2023-10-31T14:23:30;1.10;;;0.60;;
4078;SDS011;2054;47.858;11.156;2023-10-31T14:25:57;2.20;;;0.77;;
4078;SDS011;2054;47.858;11.156;2023-10-31T14:28:24;1.23;;;0.65;;
4078;SDS011;2054;47.858;11.156;2023-10-31T14:30:52;1.25;;;0.60;;
4078;SDS011;2054;47.858;11.156;2023-10-31T14:33:19;1.60;;;0.88;;
4078;SDS011;2054;47.858;11.156;2023-10-31T14:35:47;3.97;;;1.40;;
4078;SDS011;2054;47.858;11.156;2023-10-31T14:38:15;1.13;;;1.02;;
4078;SDS011;2054;47.858;11.156;2023-10-31T14:40:42;0.70;;;0.70;;
4078;SDS011;2054;47.858;11.156;2023-10-31T14:43:09;1.50;;;1.10;;
4078;SDS011;2054;47.858;11.156;2023-10-31T14:45:43;1.77;;;1.25;;
4078;SDS011;2054;47.858;11.156;2023-10-31T14:48:10;1.23;;;0.90;;
4078;SDS011;2054;47.858;11.156;2023-10-31T14:50:37;1.60;;;0.90;;
4078;SDS011;2054;47.858;11.156;2023-10-31T14:53:06;1.35;;;0.70;;
4078;SDS011;2054;47.858;11.156;2023-10-31T14:55:34;2.33;;;0.68;;
4078;SDS011;2054;47.858;11.156;2023-10-31T14:58:02;0.98;;;0.82;;
4078;SDS011;2054;47.858;11.156;2023-10-31T15:00:29;2.10;;;1.30;;
4078;SDS011;2054;47.858;11.156;2023-10-31T15:02:57;1.13;;;1.00;;
4078;SDS011;2054;47.858;11.156;2023-10-31T15:05:24;3.67;;;1.45;;
4078;SDS011;2054;47.858;11.156;2023-10-31T15:07:51;1.95;;;1.35;;
4078;SDS011;2054;47.858;11.156;2023-10-31T15:10:20;1.00;;;0.90;;
4078;SDS011;2054;47.858;11.156;2023-10-31T15:12:48;3.50;;;2.72;;
4078;SDS011;2054;47.858;11.156;2023-10-31T15:15:17;2.20;;;1.10;;
4078;SDS011;2054;47.858;11.156;2023-10-31T15:17:44;3.80;;;1.30;;
4078;SDS011;2054;47.858;11.156;2023-10-31T15:20:12;1.20;;;1.02;;
4078;SDS011;2054;47.858;11.156;2023-10-31T15:22:40;1.23;;;1.13;;
4078;SDS011;2054;47.858;11.156;2023-10-31T15:25:08;2.28;;;0.90;;
4078;SDS011;2054;47.858;11.156;2023-10-31T15:27:37;1.58;;;0.90;;
4078;SDS011;2054;47.858;11.156;2023-10-31T15:30:05;0.80;;;0.80;;
4078;SDS011;2054;47.858;11.156;2023-10-31T15:32:34;4.00;;;0.85;;
4078;SDS011;2054;47.858;11.156;2023-10-31T15:35:03;2.28;;;1.05;;
4078;SDS011;2054;47.858;11.156;2023-10-31T15:40:19;5.05;;;2.30;;
4078;SDS011;2054;47.858;11.156;2023-10-31T15:42:48;1.58;;;1.40;;
4078;SDS011;2054;47.858;11.156;2023-10-31T15:45:15;1.60;;;1.20;;
4078;SDS011;2054;47.858;11.156;2023-10-31T15:47:42;1.30;;;0.93;;
4078;SDS011;2054;47.858;11.156;2023-10-31T15:50:10;1.95;;;1.40;;
4078;SDS011;2054;47.858;11.156;2023-10-31T15:52:37;1.75;;;1.50;;
4078;SDS011;2054;47.858;11.156;2023-10-31T15:55:05;2.80;;;1.27;;
4078;SDS011;2054;47.858;11.156;2023-10-31T15:57:34;2.17;;;1.25;;
4078;SDS011;2054;47.858;11.156;2023-10-31T16:00:03;4.80;;;1.40;;
4078;SDS011;2054;47.858;11.156;2023-10-31T16:02:30;1.40;;;1.30;;
4078;SDS011;2054;47.858;11.156;2023-10-31T16:04:57;1.73;;;1.08;;
4078;SDS011;2054;47.858;11.156;2023-10-31T16:07:25;2.00;;;1.10;;
4078;SDS011;2054;47.858;11.156;2023-10-31T16:09:52;2.25;;;1.42;;
4078;SDS011;2054;47.858;11.156;2023-10-31T16:12:19;2.58;;;1.90;;
4078;SDS011;2054;47.858;11.156;2023-10-31T16:14:47;2.53;;;1.50;;
4078;SDS011;2054;47.858;11.156;2023-10-31T16:17:15;5.60;;;2.08;;
4078;SDS011;2054;47.858;11.156;2023-10-31T16:19:42;7.03;;;5.00;;
4078;SDS011;2054;47.858;11.156;2023-10-31T16:22:10;1.83;;;0.95;;
4078;SDS011;2054;47.858;11.156;2023-10-31T16:24:38;1.27;;;0.98;;
4078;SDS011;2054;47.858;11.156;2023-10-31T16:27:07;1.35;;;1.13;;
4078;SDS011;2054;47.858;11.156;2023-10-31T16:29:34;1.20;;;1.00;;
4078;SDS011;2054;47.858;11.156;2023-10-31T16:32:02;1.20;;;1.10;;
4078;SDS011;2054;47.858;11.156;2023-10-31T16:34:31;1.83;;;1.05;;
4078;SDS011;2054;47.858;11.156;2023-10-31T16:36:59;1.95;;;0.90;;
4078;SDS011;2054;47.858;11.156;2023-10-31T16:39:26;0.95;;;0.80;;
4078;SDS011;2054;47.858;11.156;2023-10-31T16:41:54;1.00;;;0.90;;
4078;SDS011;2054;47.858;11.156;2023-10-31T16:44:22;2.88;;;1.70;;
4078;SDS011;2054;47.858;11.156;2023-10-31T16:46:49;2.80;;;1.50;;
4078;SDS011;2054;47.858;11.156;2023-10-31T16:49:17;2.50;;;0.90;;
4078;SDS011;2054;47.858;11.156;2023-10-31T16:51:46;2.47;;;1.40;;
4078;SDS011;2054;47.858;11.156;2023-10-31T16:54:13;1.83;;;1.30;;
4078;SDS011;2054;47.858;11.156;2023-10-31T16:56:40;1.52;;;1.02;;
4078;SDS011;2054;47.858;11.156;2023-10-31T16:59:07;1.33;;;1.00;;
4078;SDS011;2054;47.858;11.156;2023-10-31T17:01:34;0.93;;;0.93;;
4078;SDS011;2054;47.858;11.156;2023-10-31T17:04:02;2.35;;;1.02;;
4078;SDS011;2054;47.858;11.156;2023-10-31T17:06:29;0.80;;;0.80;;
4078;SDS011;2054;47.858;11.156;2023-10-31T17:08:58;0.90;;;0.75;;
4078;SDS011;2054;47.858;11.156;2023-10-31T17:11:24;0.98;;;0.98;;
4078;SDS011;2054;47.858;11.156;2023-10-31T17:13:51;0.80;;;0.77;;
4078;SDS011;2054;47.858;11.156;2023-10-31T17:16:19;1.35;;;1.00;;
4078;SDS011;2054;47.858;11.156;2023-10-31T17:18:46;4.57;;;0.85;;
4078;SDS011;2054;47.858;11.156;2023-10-31T17:21:14;1.33;;;1.02;;
4078;SDS011;2054;47.858;11.156;2023-10-31T17:23:41;1.23;;;1.08;;
4078;SDS011;2054;47.858;11.156;2023-10-31T17:26:11;1.67;;;1.10;;
4078;SDS011;2054;47.858;11.156;2023-10-31T17:28:38;1.10;;;1.00;;
4078;SDS011;2054;47.858;11.156;2023-10-31T17:31:06;3.20;;;1.20;;
4078;SDS011;2054;47.858;11.156;2023-10-31T17:33:33;1.55;;;1.42;;
4078;SDS011;2054;47.858;11.156;2023-10-31T17:36:01;5.00;;;1.38;;
4078;SDS011;2054;47.858;11.156;2023-10-31T17:38:28;2.88;;;1.85;;
4078;SDS011;2054;47.858;11.156;2023-10-31T17:40:56;2.22;;;1.67;;
4078;SDS011;2054;47.858;11.156;2023-10-31T17:43:24;2.35;;;1.73;;
4078;SDS011;2054;47.858;11.156;2023-10-31T17:45:52;3.70;;;2.40;;
4078;SDS011;2054;47.858;11.156;2023-10-31T17:48:19;4.65;;;2.20;;
4078;SDS011;2054;47.858;11.156;2023-10-31T17:50:46;2.88;;;2.28;;
4078;SDS011;2054;47.858;11.156;2023-10-31T17:53:14;1.50;;;1.40;;
4078;SDS011;2054;47.858;11.156;2023-10-31T17:55:41;2.08;;;1.50;;
4078;SDS011;2054;47.858;11.156;2023-10-31T17:58:10;5.15;;;2.30;;
4078;SDS011;2054;47.858;11.156;2023-10-31T18:00:39;3.13;;;1.60;;
4078;SDS011;2054;47.858;11.156;2023-10-31T18:03:06;2.90;;;1.48;;
4078;SDS011;2054;47.858;11.156;2023-10-31T18:05:33;2.22;;;1.48;;
4078;SDS011;2054;47.858;11.156;2023-10-31T18:08:01;1.52;;;1.40;;
4078;SDS011;2054;47.858;11.156;2023-10-31T18:10:28;2.38;;;1.20;;
4078;SDS011;2054;47.858;11.156;2023-10-31T18:12:55;1.80;;;1.10;;
4078;SDS011;2054;47.858;11.156;2023-10-31T18:15:22;1.23;;;1.10;;
4078;SDS011;2054;47.858;11.156;2023-10-31T18:17:51;1.80;;;1.45;;
4078;SDS011;2054;47.858;11.156;2023-10-31T18:20:18;1.40;;;1.30;;
4078;SDS011;2054;47.858;11.156;2023-10-31T18:22:45;5.40;;;4.63;;
4078;SDS011;2054;47.858;11.156;2023-10-31T18:25:13;4.82;;;4.43;;
4078;SDS011;2054;47.858;11.156;2023-10-31T18:27:41;4.13;;;3.30;;
4078;SDS011;2054;47.858;11.156;2023-10-31T18:30:08;2.00;;;1.80;;
4078;SDS011;2054;47.858;11.156;2023-10-31T18:32:36;2.00;;;1.88;;
4078;SDS011;2054;47.858;11.156;2023-10-31T18:35:05;1.60;;;1.50;;
4078;SDS011;2054;47.858;11.156;2023-10-31T18:37:32;2.42;;;2.22;;
4078;SDS011;2054;47.858;11.156;2023-10-31T18:40:00;2.42;;;1.88;;
4078;SDS011;2054;47.858;11.156;2023-10-31T18:42:33;2.13;;;1.50;;
4078;SDS011;2054;47.858;11.156;2023-10-31T18:45:02;1.60;;;1.48;;
4078;SDS011;2054;47.858;11.156;2023-10-31T18:47:29;1.98;;;1.25;;
4078;SDS011;2054;47.858;11.156;2023-10-31T18:49:57;1.45;;;1.35;;
4078;SDS011;2054;47.858;11.156;2023-10-31T18:52:26;1.10;;;1.00;;